createdAt,value
2023-06-12T00:02:23.531Z,4.40
2023-06-12T00:04:55.942Z,4.50
2023-06-12T00:07:29.955Z,3.80
2023-06-12T00:10:01.795Z,4.20
2023-06-12T00:12:34.008Z,4.50
2023-06-12T00:15:06.753Z,4.30
2023-06-12T00:17:41.721Z,4.00
2023-06-12T00:20:14.459Z,4.10
2023-06-12T00:22:46.995Z,4.30
2023-06-12T00:25:18.797Z,3.70
2023-06-12T00:27:50.819Z,3.70
2023-06-12T00:30:22.954Z,4.00
2023-06-12T00:32:55.048Z,4.20
2023-06-12T00:35:27.052Z,3.90
2023-06-12T00:37:59.570Z,4.30
2023-06-12T00:40:31.345Z,3.30
2023-06-12T00:43:03.382Z,3.80
2023-06-12T00:45:35.353Z,3.20
2023-06-12T00:48:08.376Z,3.50
2023-06-12T00:50:42.507Z,3.70
2023-06-12T00:53:14.570Z,3.40
2023-06-12T00:55:46.332Z,3.60
2023-06-12T00:58:18.663Z,3.50
2023-06-12T01:00:50.804Z,3.70
2023-06-12T01:03:23.460Z,3.60
2023-06-12T01:05:56.300Z,3.60
2023-06-12T01:08:35.358Z,3.40
2023-06-12T01:11:10.149Z,3.40
2023-06-12T01:13:42.544Z,3.50
2023-06-12T01:16:14.407Z,3.50
2023-06-12T01:18:46.236Z,3.50
2023-06-12T01:21:19.895Z,3.30
2023-06-12T01:24:20.081Z,3.20
2023-06-12T01:27:08.062Z,3.00
2023-06-12T01:30:04.210Z,3.40
2023-06-12T01:32:39.443Z,3.60
2023-06-12T01:35:17.933Z,3.80
2023-06-12T01:37:53.398Z,3.70
2023-06-12T01:40:26.204Z,3.60
2023-06-12T01:42:57.965Z,3.80
2023-06-12T01:45:29.819Z,3.40
2023-06-12T01:48:01.879Z,3.70
2023-06-12T01:50:34.271Z,3.40
2023-06-12T01:53:06.720Z,4.00
2023-06-12T01:55:39.252Z,3.70
2023-06-12T01:58:11.003Z,3.90
2023-06-12T02:00:43.975Z,3.50
2023-06-12T02:03:15.831Z,3.90
2023-06-12T02:05:47.867Z,3.30
2023-06-12T02:08:19.695Z,3.60
2023-06-12T02:10:51.643Z,3.50
2023-06-12T02:13:23.396Z,3.30
2023-06-12T02:15:55.409Z,3.60
2023-06-12T02:18:27.265Z,3.60
2023-06-12T02:20:59.214Z,3.30
2023-06-12T02:23:30.990Z,3.80
2023-06-12T02:26:02.872Z,3.60
2023-06-12T02:28:34.745Z,3.50
2023-06-12T02:31:06.878Z,3.50
2023-06-12T02:33:39.553Z,3.70
2023-06-12T02:36:12.284Z,3.70
2023-06-12T02:38:44.721Z,3.60
2023-06-12T02:41:16.635Z,3.80
2023-06-12T02:43:48.504Z,3.50
2023-06-12T02:46:21.314Z,3.60
2023-06-12T02:48:53.137Z,4.00
2023-06-12T02:51:28.019Z,3.40
2023-06-12T02:54:00.125Z,3.90
2023-06-12T02:56:32.452Z,4.00
2023-06-12T02:59:07.433Z,4.00
2023-06-12T03:01:44.921Z,3.30
2023-06-12T03:04:20.443Z,3.30
2023-06-12T03:06:54.617Z,4.10
2023-06-12T03:11:57.219Z,4.10
2023-06-12T03:14:29.023Z,3.70
2023-06-12T03:17:00.952Z,3.80
2023-06-12T03:19:32.876Z,3.70
2023-06-12T03:22:05.025Z,3.90
2023-06-12T03:24:38.581Z,3.60
2023-06-12T03:27:11.047Z,4.20
2023-06-12T03:29:42.810Z,3.70
2023-06-12T03:32:14.867Z,4.30
2023-06-12T03:34:47.486Z,3.90
2023-06-12T03:37:20.127Z,3.90
2023-06-12T03:39:52.097Z,4.00
2023-06-12T03:42:24.426Z,3.70
2023-06-12T03:44:56.247Z,4.70
2023-06-12T03:47:28.277Z,4.10
2023-06-12T03:50:00.107Z,3.80
2023-06-12T03:52:32.641Z,3.30
2023-06-12T03:55:04.624Z,4.20
2023-06-12T03:57:37.736Z,3.50
2023-06-12T04:00:13.058Z,3.80
2023-06-12T04:02:45.286Z,3.80
2023-06-12T04:05:17.380Z,3.70
2023-06-12T04:07:49.777Z,3.70
2023-06-12T04:10:23.624Z,3.20
2023-06-12T04:12:59.207Z,4.10
2023-06-12T04:15:31.207Z,3.40
2023-06-12T04:18:03.349Z,3.00
2023-06-12T04:20:35.341Z,4.10
2023-06-12T04:23:13.194Z,2.70
2023-06-12T04:25:45.468Z,2.90
2023-06-12T04:28:18.354Z,3.30
2023-06-12T04:30:50.579Z,3.80
2023-06-12T04:33:25.338Z,2.80
2023-06-12T04:35:57.326Z,3.20
2023-06-12T04:38:31.990Z,3.70
2023-06-12T04:41:04.016Z,3.30
2023-06-12T04:43:38.091Z,3.30
2023-06-12T04:46:10.004Z,3.70
2023-06-12T04:48:43.645Z,4.00
2023-06-12T04:51:15.677Z,3.40
2023-06-12T04:53:49.124Z,3.80
2023-06-12T04:56:23.101Z,3.50
2023-06-12T04:58:55.380Z,3.90
2023-06-12T05:01:27.394Z,3.50
2023-06-12T05:03:59.358Z,3.90
2023-06-12T05:06:31.563Z,3.30
2023-06-12T05:09:07.469Z,3.40
2023-06-12T05:11:39.359Z,3.70
2023-06-12T05:14:11.410Z,3.80
2023-06-12T05:16:43.524Z,3.50
2023-06-12T05:19:15.479Z,3.00
2023-06-12T05:21:50.618Z,3.90
2023-06-12T05:24:22.978Z,3.90
2023-06-12T05:26:54.979Z,2.90
2023-06-12T05:29:27.940Z,3.30
2023-06-12T05:31:59.768Z,2.90
2023-06-12T05:34:31.711Z,3.50
2023-06-12T05:37:04.508Z,3.00
2023-06-12T05:39:36.494Z,3.20
2023-06-12T05:42:09.288Z,4.70
2023-06-12T05:44:41.321Z,3.70
2023-06-12T05:47:13.254Z,4.90
2023-06-12T05:49:45.287Z,3.50
2023-06-12T05:52:17.606Z,3.70
2023-06-12T05:57:22.346Z,4.10
2023-06-12T05:59:54.383Z,3.60
2023-06-12T06:02:26.408Z,3.10
2023-06-12T06:04:58.903Z,3.50
2023-06-12T06:07:34.392Z,3.50
2023-06-12T06:10:09.758Z,3.70
2023-06-12T06:12:41.779Z,6.90
2023-06-12T06:15:15.528Z,3.70
2023-06-12T06:17:47.744Z,4.30
2023-06-12T06:20:20.060Z,3.50
2023-06-12T06:22:52.144Z,3.70
2023-06-12T06:25:24.895Z,3.20
2023-06-12T06:27:57.417Z,4.70
2023-06-12T06:30:29.745Z,3.30
2023-06-12T06:33:01.628Z,3.90
2023-06-12T06:35:33.576Z,2.80
2023-06-12T06:38:05.499Z,2.20
2023-06-12T06:40:37.531Z,2.40
2023-06-12T06:43:09.312Z,3.20
2023-06-12T06:45:41.188Z,3.10
2023-06-12T06:48:13.733Z,2.50
2023-06-12T06:50:46.123Z,2.20
2023-06-12T06:53:17.979Z,2.30
2023-06-12T06:55:50.025Z,2.20
2023-06-12T06:58:21.828Z,2.50
2023-06-12T07:00:54.129Z,2.10
2023-06-12T07:03:26.495Z,2.60
2023-06-12T07:05:58.594Z,2.10
2023-06-12T07:08:30.459Z,2.00
2023-06-12T07:11:02.447Z,1.70
2023-06-12T07:13:34.687Z,2.10
2023-06-12T07:16:07.034Z,1.80
2023-06-12T07:18:39.151Z,2.20
2023-06-12T07:21:11.420Z,1.60
2023-06-12T07:23:45.278Z,2.20
2023-06-12T07:26:27.144Z,1.90
2023-06-12T07:29:01.467Z,2.30
2023-06-12T07:31:33.602Z,1.40
2023-06-12T07:34:07.988Z,1.70
2023-06-12T07:36:40.160Z,1.70
2023-06-12T07:39:12.070Z,1.40
2023-06-12T07:41:44.618Z,1.60
2023-06-12T07:44:16.555Z,1.50
2023-06-12T07:46:48.420Z,1.80
2023-06-12T07:49:21.155Z,1.50
2023-06-12T07:51:54.245Z,1.60
2023-06-12T07:54:26.409Z,1.50
2023-06-12T07:56:58.814Z,1.40
2023-06-12T07:59:30.830Z,1.40
2023-06-12T08:02:03.383Z,1.50
2023-06-12T08:04:36.738Z,1.30
2023-06-12T08:07:10.750Z,1.50
2023-06-12T08:09:43.238Z,1.60
2023-06-12T08:12:15.360Z,1.30
2023-06-12T08:14:48.500Z,1.30
2023-06-12T08:17:22.209Z,2.30
2023-06-12T08:22:25.058Z,1.70
2023-06-12T08:24:56.950Z,1.40
2023-06-12T08:27:29.140Z,1.40
2023-06-12T08:30:01.093Z,1.20
2023-06-12T08:32:33.232Z,1.50
2023-06-12T08:35:05.903Z,1.50
2023-06-12T08:37:38.279Z,1.10
2023-06-12T08:40:14.700Z,1.10
2023-06-12T08:42:50.362Z,1.20
2023-06-12T08:45:22.930Z,1.50
2023-06-12T08:47:55.726Z,1.80
2023-06-12T08:50:28.116Z,1.70
2023-06-12T08:53:00.853Z,1.70
2023-06-12T08:55:33.287Z,1.90
2023-06-12T08:58:05.341Z,1.60
2023-06-12T09:00:37.512Z,1.60
2023-06-12T09:03:09.801Z,1.20
2023-06-12T09:05:43.371Z,1.40
2023-06-12T09:08:15.656Z,1.50
2023-06-12T09:10:47.516Z,1.40
2023-06-12T09:13:19.646Z,1.80
2023-06-12T09:15:55.820Z,1.60
2023-06-12T09:18:28.055Z,1.20
2023-06-12T09:21:07.001Z,1.60
2023-06-12T09:23:41.487Z,1.90
2023-06-12T09:26:16.890Z,1.30
2023-06-12T09:28:49.149Z,1.50
2023-06-12T09:31:21.345Z,1.80
2023-06-12T09:33:55.468Z,1.80
2023-06-12T09:36:42.286Z,1.50
2023-06-12T09:39:17.677Z,1.50
2023-06-12T09:41:58.916Z,1.30
2023-06-12T09:44:32.452Z,1.50
2023-06-12T09:47:05.496Z,1.50
2023-06-12T09:49:38.604Z,1.50
2023-06-12T09:52:12.079Z,1.70
2023-06-12T09:54:45.030Z,1.40
2023-06-12T09:57:17.862Z,1.80
2023-06-12T09:59:50.477Z,1.70
2023-06-12T10:02:22.675Z,1.30
2023-06-12T10:05:02.554Z,1.30
2023-06-12T10:07:39.899Z,1.20
2023-06-12T10:10:14.508Z,1.70
2023-06-12T10:12:46.799Z,1.50
2023-06-12T10:15:19.333Z,1.60
2023-06-12T10:17:51.950Z,1.70
2023-06-12T10:20:24.405Z,1.50
2023-06-12T10:22:58.210Z,2.00
2023-06-12T10:25:30.352Z,1.50
2023-06-12T10:28:03.514Z,1.40
2023-06-12T10:30:35.797Z,1.70
2023-06-12T10:33:16.069Z,1.30
2023-06-12T10:35:48.359Z,1.70
2023-06-12T10:38:23.130Z,1.20
2023-06-12T10:40:55.579Z,1.60
2023-06-12T10:43:28.811Z,2.00
2023-06-12T10:46:01.424Z,1.50
2023-06-12T10:48:48.668Z,1.90
2023-06-12T10:51:36.875Z,1.70
2023-06-12T10:54:17.741Z,1.80
2023-06-12T10:57:04.738Z,1.70
2023-06-12T10:59:40.558Z,2.30
2023-06-12T11:02:12.990Z,1.60
2023-06-12T11:04:46.339Z,1.60
2023-06-12T11:07:19.571Z,1.40
2023-06-12T11:09:51.403Z,1.90
2023-06-12T11:12:25.124Z,1.70
2023-06-12T11:15:00.737Z,1.70
2023-06-12T11:17:33.176Z,1.70
2023-06-12T11:20:06.656Z,1.50
2023-06-12T11:22:38.991Z,1.80
2023-06-12T11:25:12.268Z,1.80
2023-06-12T11:27:44.809Z,1.80
2023-06-12T11:30:31.577Z,1.80
2023-06-12T11:33:15.349Z,1.90
2023-06-12T11:35:48.952Z,1.70
2023-06-12T11:40:57.880Z,1.90
2023-06-12T11:43:30.804Z,1.90
2023-06-12T11:46:06.288Z,1.70
2023-06-12T11:51:13.481Z,2.00
2023-06-12T11:53:45.498Z,1.70
2023-06-12T11:58:55.961Z,1.80
2023-06-12T12:01:28.572Z,1.60
2023-06-12T12:04:05.439Z,1.80
2023-06-12T12:06:49.384Z,1.70
2023-06-12T12:11:56.941Z,2.20
2023-06-12T12:14:28.898Z,2.30
2023-06-12T12:17:10.577Z,1.90
2023-06-12T12:19:43.230Z,1.50
2023-06-12T12:22:17.070Z,1.90
2023-06-12T12:24:49.049Z,2.00
2023-06-12T12:27:21.918Z,1.70
2023-06-12T12:30:14.509Z,2.00
2023-06-12T12:32:48.046Z,2.10
2023-06-12T12:35:20.630Z,2.00
2023-06-12T12:37:53.877Z,2.20
2023-06-12T12:40:28.390Z,2.00
2023-06-12T12:43:00.229Z,2.30
2023-06-12T12:45:32.526Z,1.40
2023-06-12T12:48:06.420Z,1.90
2023-06-12T12:50:52.049Z,1.80
2023-06-12T12:53:29.170Z,1.90
2023-06-12T12:56:01.149Z,2.20
2023-06-12T12:58:33.072Z,1.40
2023-06-12T13:01:05.216Z,1.70
2023-06-12T13:03:39.736Z,1.30
2023-06-12T13:06:13.110Z,1.90
2023-06-12T13:08:45.064Z,1.80
2023-06-12T13:11:17.025Z,1.40
2023-06-12T13:13:48.976Z,1.90
2023-06-12T13:16:21.577Z,1.60
2023-06-12T13:18:54.196Z,1.80
2023-06-12T13:21:26.104Z,2.10
2023-06-12T13:23:58.124Z,1.70
2023-06-12T13:26:30.080Z,1.80
2023-06-12T13:29:02.662Z,1.90
2023-06-12T13:31:34.657Z,2.20
2023-06-12T13:34:06.939Z,1.80
2023-06-12T13:36:39.127Z,1.90
2023-06-12T13:39:11.900Z,2.00
2023-06-12T13:41:43.781Z,1.80
2023-06-12T13:44:16.331Z,1.70
2023-06-12T13:46:48.554Z,1.90
2023-06-12T13:49:20.506Z,1.70
2023-06-12T13:51:53.579Z,1.50
2023-06-12T13:54:29.954Z,2.00
2023-06-12T13:57:02.082Z,2.10
2023-06-12T13:59:36.605Z,1.60
2023-06-12T14:02:10.171Z,1.90
2023-06-12T14:07:13.154Z,1.80
2023-06-12T14:09:45.398Z,2.00
2023-06-12T14:12:17.424Z,2.30
2023-06-12T14:14:50.345Z,2.10
2023-06-12T14:17:22.422Z,2.20
2023-06-12T14:19:54.517Z,1.70
2023-06-12T14:22:26.279Z,2.00
2023-06-12T14:24:58.571Z,1.80
2023-06-12T14:27:32.380Z,1.70
2023-06-12T14:30:05.028Z,2.20
2023-06-12T14:32:37.191Z,1.80
2023-06-12T14:35:10.688Z,1.90
2023-06-12T14:37:42.915Z,1.90
2023-06-12T14:40:15.446Z,2.00
2023-06-12T14:42:47.309Z,1.80
2023-06-12T14:45:20.698Z,2.20
2023-06-12T14:47:54.357Z,1.60
2023-06-12T14:50:26.488Z,1.80
2023-06-12T14:52:58.559Z,1.80
2023-06-12T14:55:30.603Z,1.90
2023-06-12T14:58:02.465Z,1.80
2023-06-12T15:00:34.434Z,1.90
2023-06-12T15:03:07.001Z,2.10
2023-06-12T15:05:39.950Z,2.30
2023-06-12T15:08:12.184Z,2.00
2023-06-12T15:10:45.994Z,2.00
2023-06-12T15:13:18.186Z,1.90
2023-06-12T15:15:50.326Z,2.20
2023-06-12T15:18:38.271Z,1.90
2023-06-12T15:21:17.917Z,2.00
2023-06-12T15:23:50.433Z,2.40
2023-06-12T15:26:22.631Z,2.30
2023-06-12T15:28:55.162Z,2.10
2023-06-12T15:31:27.147Z,1.90
2023-06-12T15:33:59.287Z,2.10
2023-06-12T15:36:31.442Z,2.30
2023-06-12T15:39:04.132Z,1.90
2023-06-12T15:41:36.298Z,2.00
2023-06-12T15:44:08.568Z,1.70
2023-06-12T15:46:41.004Z,2.10
2023-06-12T15:49:13.218Z,1.80
2023-06-12T15:51:45.106Z,1.90
2023-06-12T15:54:16.987Z,2.00
2023-06-12T15:56:52.424Z,2.20
2023-06-12T15:59:25.124Z,2.00
2023-06-12T16:01:59.987Z,1.60
2023-06-12T16:04:32.450Z,2.00
2023-06-12T16:07:04.685Z,2.10
2023-06-12T16:09:36.892Z,2.20
2023-06-12T16:12:10.009Z,1.80
2023-06-12T16:14:42.128Z,1.80
2023-06-12T16:17:14.136Z,1.60
2023-06-12T16:19:46.134Z,2.00
2023-06-12T16:22:18.099Z,3.00
2023-06-12T16:24:50.991Z,2.60
2023-06-12T16:27:23.128Z,1.90
2023-06-12T16:29:56.785Z,2.80
2023-06-12T16:34:59.122Z,3.10
2023-06-12T16:37:31.047Z,2.30
2023-06-12T16:40:10.647Z,2.00
2023-06-12T16:42:43.169Z,2.10
2023-06-12T16:45:15.214Z,2.50
2023-06-12T16:47:47.613Z,2.40
2023-06-12T16:50:19.506Z,2.40
2023-06-12T16:52:51.524Z,2.20
2023-06-12T16:55:23.339Z,2.10
2023-06-12T16:57:55.439Z,2.10
2023-06-12T17:00:27.860Z,1.70
2023-06-12T17:03:00.717Z,2.20
2023-06-12T17:05:33.025Z,1.50
2023-06-12T17:08:05.219Z,2.50
2023-06-12T17:10:37.135Z,2.20
2023-06-12T17:13:09.232Z,2.20
2023-06-12T17:15:41.155Z,1.80
2023-06-12T17:18:13.096Z,2.20
2023-06-12T17:20:45.067Z,1.30
2023-06-12T17:23:17.070Z,1.90
2023-06-12T17:25:48.951Z,1.60
2023-06-12T17:28:21.710Z,1.70
2023-06-12T17:30:53.716Z,1.50
2023-06-12T17:33:26.006Z,2.20
2023-06-12T17:35:58.068Z,1.80
2023-06-12T17:38:29.999Z,1.60
2023-06-12T17:41:01.985Z,1.40
2023-06-12T17:43:34.217Z,1.50
2023-06-12T17:46:06.337Z,1.50
2023-06-12T17:48:38.719Z,1.50
2023-06-12T17:51:11.016Z,1.20
2023-06-12T17:53:43.154Z,1.40
2023-06-12T17:56:16.223Z,1.60
2023-06-12T17:58:48.745Z,1.30
2023-06-12T18:01:21.009Z,1.10
2023-06-12T18:03:53.013Z,1.20
2023-06-12T18:06:25.083Z,1.40
2023-06-12T18:08:57.035Z,1.40
2023-06-12T18:11:29.029Z,1.60
2023-06-12T18:14:01.109Z,1.30
2023-06-12T18:16:33.112Z,1.80
2023-06-12T18:19:05.294Z,1.70
2023-06-12T18:21:39.417Z,2.10
2023-06-12T18:24:11.595Z,1.70
2023-06-12T18:26:43.954Z,1.60
2023-06-12T18:29:16.176Z,1.60
2023-06-12T18:31:48.624Z,1.70
2023-06-12T18:34:20.593Z,1.80
2023-06-12T18:36:52.476Z,1.60
2023-06-12T18:39:24.358Z,1.40
2023-06-12T18:41:56.290Z,2.00
2023-06-12T18:44:28.253Z,1.80
2023-06-12T18:47:00.445Z,4.30
2023-06-12T18:49:32.437Z,3.20
2023-06-12T18:52:05.024Z,1.60
2023-06-12T18:54:38.885Z,2.00
2023-06-12T18:57:13.431Z,1.60
2023-06-12T18:59:45.991Z,1.50
2023-06-12T19:02:17.935Z,1.60
2023-06-12T19:04:49.803Z,1.70
2023-06-12T19:07:21.985Z,1.90
2023-06-12T19:09:55.187Z,2.00
2023-06-12T19:12:28.383Z,1.80
2023-06-12T19:15:00.624Z,2.00
2023-06-12T19:17:32.740Z,1.60
2023-06-12T19:20:05.011Z,1.60
2023-06-12T19:22:38.465Z,2.10
2023-06-12T19:25:11.456Z,2.00
2023-06-12T19:27:43.861Z,1.90
2023-06-12T19:30:18.238Z,1.80
2023-06-12T19:32:50.257Z,2.20
2023-06-12T19:35:22.543Z,1.90
2023-06-12T19:37:54.619Z,1.90
2023-06-12T19:40:26.542Z,1.60
2023-06-12T19:42:58.652Z,1.90
2023-06-12T19:45:31.038Z,2.20
2023-06-12T19:48:04.089Z,1.80
2023-06-12T19:50:36.034Z,2.20
2023-06-12T19:53:08.218Z,1.80
2023-06-12T19:55:40.263Z,2.00
2023-06-12T19:58:12.367Z,1.40
2023-06-12T20:00:44.449Z,1.80
2023-06-12T20:03:16.614Z,2.70
2023-06-12T20:05:48.602Z,2.20
2023-06-12T20:08:20.525Z,1.70
2023-06-12T20:10:52.485Z,2.30
2023-06-12T20:13:24.474Z,2.20
2023-06-12T20:15:56.487Z,1.80
2023-06-12T20:18:28.489Z,1.90
2023-06-12T20:21:00.463Z,2.30
2023-06-12T20:23:32.542Z,1.90
2023-06-12T20:26:04.763Z,1.90
2023-06-12T20:28:37.084Z,2.10
2023-06-12T20:31:09.013Z,2.30
2023-06-12T20:33:41.163Z,1.80
2023-06-12T20:36:12.959Z,2.30
2023-06-12T20:38:45.213Z,2.10
2023-06-12T20:41:17.445Z,2.30
2023-06-12T20:43:49.597Z,2.30
2023-06-12T20:46:21.869Z,2.00
2023-06-12T20:48:54.106Z,2.20
2023-06-12T20:51:28.925Z,2.20
2023-06-12T20:54:02.180Z,2.30
2023-06-12T20:56:34.518Z,2.50
2023-06-12T20:59:06.438Z,2.30
2023-06-12T21:01:38.830Z,2.70
2023-06-12T21:04:10.853Z,2.60
2023-06-12T21:06:42.841Z,1.90
2023-06-12T21:09:14.844Z,2.40
2023-06-12T21:11:46.764Z,2.20
2023-06-12T21:14:18.909Z,2.00
2023-06-12T21:16:51.238Z,2.30
2023-06-12T21:19:23.218Z,2.00
2023-06-12T21:21:55.385Z,2.40
2023-06-12T21:24:27.499Z,2.20
2023-06-12T21:27:00.233Z,2.10
2023-06-12T21:29:32.133Z,2.70
2023-06-12T21:32:04.469Z,2.20
2023-06-12T21:34:36.507Z,2.40
2023-06-12T21:37:22.201Z,1.80
2023-06-12T21:39:56.512Z,2.00
2023-06-12T21:42:28.958Z,2.00
2023-06-12T21:45:01.249Z,2.20
2023-06-12T21:47:35.137Z,1.80
2023-06-12T21:50:08.556Z,2.00
2023-06-12T21:52:40.756Z,2.20
2023-06-12T21:55:13.670Z,1.70
2023-06-12T21:57:46.255Z,1.70
2023-06-12T22:00:19.688Z,1.70
2023-06-12T22:02:52.029Z,1.60
2023-06-12T22:05:24.521Z,1.50
2023-06-12T22:07:56.841Z,1.40
2023-06-12T22:10:29.152Z,1.70
2023-06-12T22:13:01.356Z,1.00
2023-06-12T22:15:33.800Z,1.60
2023-06-12T22:18:06.691Z,1.20
2023-06-12T22:20:41.540Z,1.20
2023-06-12T22:23:14.951Z,1.30
2023-06-12T22:25:47.219Z,1.40
2023-06-12T22:28:19.949Z,2.20
2023-06-12T22:31:01.545Z,1.80
2023-06-12T22:33:35.185Z,1.80
2023-06-12T22:36:08.073Z,1.70
2023-06-12T22:38:40.562Z,1.40
2023-06-12T22:41:12.513Z,1.80
2023-06-12T22:43:45.105Z,1.10
2023-06-12T22:46:17.578Z,1.60
2023-06-12T22:48:50.162Z,1.50
2023-06-12T22:51:22.669Z,1.40
2023-06-12T22:53:54.761Z,1.60
2023-06-12T22:56:26.990Z,1.60
2023-06-12T22:58:59.102Z,1.60
2023-06-12T23:01:31.610Z,1.80
2023-06-12T23:04:03.810Z,9.60
2023-06-12T23:06:36.735Z,21.80
2023-06-12T23:09:09.248Z,14.30
2023-06-12T23:11:41.692Z,2.10
2023-06-12T23:14:13.929Z,1.60
2023-06-12T23:16:47.701Z,1.40
2023-06-12T23:19:20.875Z,1.60
2023-06-12T23:21:53.008Z,1.30
2023-06-12T23:24:27.230Z,1.60
2023-06-12T23:26:59.956Z,1.40
2023-06-12T23:29:32.214Z,1.70
2023-06-12T23:32:04.421Z,1.80
2023-06-12T23:34:37.634Z,2.20
2023-06-12T23:37:11.094Z,1.80
2023-06-12T23:39:43.336Z,2.20
2023-06-12T23:42:18.767Z,2.40
2023-06-12T23:44:53.170Z,2.20
2023-06-12T23:47:25.487Z,2.30
2023-06-12T23:49:57.801Z,2.60
2023-06-12T23:52:29.837Z,2.70
2023-06-12T23:55:02.039Z,2.30
2023-06-12T23:57:34.295Z,2.00
